Time;durP1;ratioP1;P1;durP2;ratioP2;P2;SDS_P1;SDS_P2;PMS_P1;PMS_P2;Temp;Humidity;BMP_temperature;BMP_pressure;BME280_temperature;BME280_humidity;BME280_pressure;Samples;Min_cycle;Max_cycle;Signal;HPM_P1;HPM_P2
2023/05/05 00:00:52;;;;;;;48.17;15.93;;;;;;;;;;5075847;28;21233;-62
2023/05/05 00:03:21;;;;;;;38.50;15.17;;;14.40;99.70;;;;;;5075814;28;20485;-62
2023/05/05 00:05:48;;;;;;;66.40;16.43;;;14.30;99.70;;;;;;5073223;28;20482;-63
2023/05/05 00:08:15;;;;;;;18.70;13.30;;;14.40;99.10;;;;;;5089987;27;20597;-62
2023/05/05 00:10:45;;;;;;;72.90;18.10;;;14.40;98.20;;;;;;5069428;28;20478;-62
2023/05/05 00:13:12;;;;;;;49.27;15.33;;;;;;;;;;5080617;27;20476;-62
2023/05/05 00:15:39;;;;;;;149.40;24.93;;;;;;;;;;5083610;27;20480;-63
2023/05/05 00:18:06;;;;;;;24.00;12.57;;;13.90;98.20;;;;;;5088935;27;20489;-62
2023/05/05 00:20:33;;;;;;;94.43;20.70;;;;;;;;;;5072599;28;20702;-62
2023/05/05 00:22:59;;;;;;;35.20;14.50;;;13.70;98.90;;;;;;5073096;28;20531;-62
2023/05/05 00:25:28;;;;;;;94.17;20.50;;;;;;;;;;5067336;28;20470;-62
2023/05/05 00:27:56;;;;;;;75.33;15.93;;;13.50;99.10;;;;;;5073546;28;21002;-63
2023/05/05 00:30:23;;;;;;;60.90;14.53;;;;;;;;;;5072907;28;20489;-62
2023/05/05 00:32:50;;;;;;;83.60;18.53;;;;;;;;;;5072936;28;20832;-62
2023/05/05 00:35:17;;;;;;;25.87;14.83;;;13.50;99.90;;;;;;5073364;28;21171;-62
2023/05/05 00:37:44;;;;;;;95.87;20.20;;;;;;;;;;5071405;28;21081;-62
2023/05/05 00:40:12;;;;;;;34.00;14.30;;;13.60;99.90;;;;;;5070577;28;20483;-62
2023/05/05 00:42:40;;;;;;;114.13;21.43;;;;;;;;;;5069129;28;20508;-62
2023/05/05 00:45:09;;;;;;;19.03;11.67;;;14.10;99.90;;;;;;5076324;27;21089;-63
2023/05/05 00:47:36;;;;;;;99.60;18.50;;;;;;;;;;5075604;28;20516;-62
2023/05/05 00:50:03;;;;;;;52.70;14.90;;;14.40;98.90;;;;;;5076529;28;20474;-63
2023/05/05 00:52:31;;;;;;;32.73;16.60;;;14.40;98.90;;;;;;5075593;28;20557;-62
2023/05/05 00:54:58;;;;;;;28.63;15.07;;;14.40;98.80;;;;;;5074589;28;20484;-62
2023/05/05 00:57:25;;;;;;;29.60;11.90;;;14.10;99.10;;;;;;5084632;27;20468;-63
2023/05/05 00:59:54;;;;;;;48.20;15.63;;;14.10;99.70;;;;;;5085162;27;20495;-62
2023/05/05 01:02:22;;;;;;;19.23;13.30;;;14.10;99.70;;;;;;5075494;28;20558;-62
2023/05/05 01:04:49;;;;;;;20.90;11.00;;;14.10;99.50;;;;;;5091429;27;20476;-62
2023/05/05 01:07:29;;;;;;;38.33;14.67;;;14.00;98.60;;;;;;5081216;27;20520;-62
2023/05/05 01:10:02;;;;;;;35.30;13.37;;;14.10;98.10;;;;;;5074743;28;20524;-63
2023/05/05 01:12:37;;;;;;;37.40;14.67;;;14.10;98.10;;;;;;5072720;28;20486;-62
2023/05/05 01:15:07;;;;;;;52.67;13.80;;;;;;;;;;5074969;28;21032;-62
2023/05/05 01:17:39;;;;;;;43.60;17.90;;;14.10;99.00;;;;;;5074072;28;20482;-62
2023/05/05 01:20:16;;;;;;;28.77;15.20;;;13.90;99.90;;;;;;5056699;27;20486;-62
2023/05/05 01:22:46;;;;;;;36.53;15.67;;;13.90;99.90;;;;;;5075546;27;20870;-62
2023/05/05 01:25:50;;;;;;;33.13;13.30;;;13.80;99.60;;;;;;5064517;28;20867;-62
2023/05/05 01:28:24;;;;;;;62.97;13.93;;;;;;;;;;5067666;28;20627;-63
2023/05/05 01:31:16;;;;;;;24.57;13.53;;;13.60;99.40;;;;;;5071260;27;20479;-62
2023/05/05 01:33:48;;;;;;;101.70;19.53;;;;;;;;;;5060409;28;21233;-62
2023/05/05 01:36:23;;;;;;;23.30;13.60;;;13.50;99.90;;;;;;5063303;28;20987;-62
2023/05/05 01:38:55;;;;;;;49.30;15.30;;;13.20;99.90;;;;;;5061391;28;20542;-62
2023/05/05 01:41:26;;;;;;;28.97;12.13;;;13.20;99.40;;;;;;5074893;28;20482;-62
2023/05/05 01:43:55;;;;;;;35.87;12.93;;;13.10;99.60;;;;;;5077225;28;21027;-62
2023/05/05 01:46:24;;;;;;;27.53;13.40;;;13.10;99.60;;;;;;5075066;28;20716;-62
2023/05/05 01:48:53;;;;;;;32.40;13.83;;;13.10;99.80;;;;;;5072822;27;20814;-62
2023/05/05 01:51:21;;;;;;;44.47;14.57;;;;;;;;;;5072723;28;20487;-63
2023/05/05 01:53:51;;;;;;;74.00;18.20;;;13.10;99.90;;;;;;5073348;28;20834;-62
2023/05/05 01:56:20;;;;;;;22.00;14.10;;;13.00;99.90;;;;;;5072007;27;20972;-62
2023/05/05 01:58:47;;;;;;;24.40;14.53;;;13.00;99.90;;;;;;5066732;28;21760;-63
2023/05/05 02:01:16;;;;;;;32.97;13.50;;;13.00;99.90;;;;;;5072489;28;20559;-63
2023/05/05 02:03:45;;;;;;;47.47;15.97;;;;;;;;;;5075574;28;20482;-62
2023/05/05 02:06:16;;;;;;;16.17;13.00;;;13.20;99.90;;;;;;5074747;28;21009;-62
2023/05/05 02:08:44;;;;;;;22.90;13.80;;;13.20;99.90;;;;;;5075338;28;20474;-62
2023/05/05 02:11:12;;;;;;;33.20;16.27;;;13.30;99.90;;;;;;5077734;28;20563;-62
2023/05/05 02:13:41;;;;;;;57.20;16.97;;;13.60;99.90;;;;;;5075749;28;20543;-62
2023/05/05 02:16:10;;;;;;;17.90;12.30;;;13.50;99.90;;;;;;5075617;27;21255;-62
2023/05/05 02:18:37;;;;;;;35.93;17.00;;;13.50;99.70;;;;;;5100612;27;21002;-62
2023/05/05 02:21:04;;;;;;;19.50;11.23;;;;;;;;;;5076007;28;21938;-62
2023/05/05 02:23:35;;;;;;;26.57;14.70;;;13.60;98.70;;;;;;5082040;28;20479;-63
2023/05/05 02:26:06;;;;;;;19.07;10.63;;;13.60;98.90;;;;;;5083526;28;20486;-62
2023/05/05 02:28:40;;;;;;;44.10;16.13;;;13.60;98.70;;;;;;5077971;28;20505;-63
2023/05/05 02:31:10;;;;;;;22.27;10.50;;;13.50;98.80;;;;;;5078841;28;20558;-62
2023/05/05 02:33:37;;;;;;;71.30;18.40;;;13.50;99.00;;;;;;5087377;28;20467;-62
2023/05/05 02:36:10;;;;;;;23.07;11.97;;;13.50;99.30;;;;;;5093298;28;20489;-62
2023/05/05 02:38:42;;;;;;;94.07;20.13;;;13.20;98.90;;;;;;5079213;28;20490;-62
2023/05/05 02:41:11;;;;;;;12.27;9.90;;;13.20;98.90;;;;;;5089107;28;20474;-62
2023/05/05 02:43:40;;;;;;;18.03;14.27;;;13.20;99.10;;;;;;5086942;28;20549;-62
2023/05/05 02:46:08;;;;;;;10.63;9.53;;;13.20;99.10;;;;;;5078458;28;20588;-62
2023/05/05 02:48:34;;;;;;;14.40;11.73;;;13.30;99.40;;;;;;5086380;28;20487;-62
2023/05/05 02:51:01;;;;;;;11.27;9.47;;;13.30;99.10;;;;;;5096367;28;20506;-61
2023/05/05 02:53:29;;;;;;;13.20;11.40;;;13.30;99.40;;;;;;5085844;28;21054;-62
2023/05/05 02:56:16;;;;;;;14.40;10.43;;;13.40;98.70;;;;;;5073979;28;20496;-62
2023/05/05 02:58:48;;;;;;;13.43;10.10;;;13.10;99.00;;;;;;5070168;28;20538;-62
2023/05/05 03:01:34;;;;;;;10.47;9.47;;;13.20;99.50;;;;;;5107285;27;21003;-62
2023/05/05 03:04:06;;;;;;;10.63;8.60;;;13.20;99.20;;;;;;5080067;27;21005;-62
2023/05/05 03:06:39;;;;;;;13.97;11.50;;;13.10;99.60;;;;;;5081163;27;20472;-62
2023/05/05 03:09:10;;;;;;;11.80;10.27;;;13.00;99.90;;;;;;5096297;28;20466;-62
2023/05/05 03:11:43;;;;;;;13.30;11.70;;;13.10;99.90;;;;;;5093440;28;20465;-62
2023/05/05 03:14:12;;;;;;;12.70;11.40;;;13.10;99.90;;;;;;5088320;28;20480;-62
2023/05/05 03:16:41;;;;;;;12.90;11.50;;;13.10;99.90;;;;;;5083670;28;20482;-62
2023/05/05 03:19:10;;;;;;;9.60;8.27;;;13.00;99.60;;;;;;5086694;28;21242;-62
2023/05/05 03:21:38;;;;;;;11.20;10.00;;;13.10;99.60;;;;;;5082994;28;20520;-62
2023/05/05 03:24:14;;;;;;;13.10;10.53;;;13.10;99.60;;;;;;5084640;28;20478;-62
2023/05/05 03:26:42;;;;;;;10.70;9.60;;;13.20;98.80;;;;;;5081618;28;20894;-62
2023/05/05 03:29:09;;;;;;;12.30;8.77;;;13.20;99.00;;;;;;5084848;28;20474;-61
2023/05/05 03:31:36;;;;;;;17.37;12.63;;;13.20;99.10;;;;;;5091909;28;20495;-61
2023/05/05 03:34:03;;;;;;;10.57;9.47;;;13.20;98.90;;;;;;5090774;27;20804;-62
2023/05/05 03:36:30;;;;;;;11.20;8.60;;;13.30;98.60;;;;;;5078606;28;20478;-61
2023/05/05 03:38:57;;;;;;;11.53;9.63;;;13.30;98.80;;;;;;5081880;28;20568;-62
2023/05/05 03:41:25;;;;;;;12.20;9.83;;;13.30;98.70;;;;;;5100701;27;20511;-62
2023/05/05 03:43:53;;;;;;;16.87;10.47;;;13.20;98.60;;;;;;5101236;27;21127;-62
2023/05/05 03:46:19;;;;;;;10.50;9.13;;;13.20;98.90;;;;;;5091830;28;20540;-63
2023/05/05 03:48:47;;;;;;;17.83;11.60;;;13.10;99.00;;;;;;5087685;27;20988;-62
2023/05/05 03:51:14;;;;;;;12.03;9.53;;;13.10;99.30;;;;;;5083043;27;20481;-63
2023/05/05 03:53:41;;;;;;;13.10;10.80;;;13.10;98.60;;;;;;5085275;28;20480;-62
2023/05/05 03:56:08;;;;;;;15.57;9.00;;;13.00;98.50;;;;;;5097192;28;20577;-63
2023/05/05 03:58:34;;;;;;;11.80;9.87;;;13.00;98.70;;;;;;5086060;28;20478;-62
2023/05/05 04:01:02;;;;;;;12.17;9.63;;;12.80;98.40;;;;;;5095305;28;20486;-62
2023/05/05 04:03:29;;;;;;;12.70;10.77;;;12.60;99.90;;;;;;5089767;28;20482;-61
2023/05/05 04:05:56;;;;;;;15.43;9.60;;;12.70;99.90;;;;;;5091325;28;20998;-61
2023/05/05 04:08:22;;;;;;;10.83;9.83;;;12.70;99.90;;;;;;5083898;28;20986;-61
2023/05/05 04:10:49;;;;;;;11.37;9.30;;;12.70;99.40;;;;;;5096060;27;20818;-61
2023/05/05 04:13:16;;;;;;;8.27;7.47;;;12.70;99.50;;;;;;5090336;28;20481;-61
2023/05/05 04:15:46;;;;;;;12.87;10.27;;;12.70;99.20;;;;;;5078584;28;20509;-61
2023/05/05 04:18:14;;;;;;;9.50;8.50;;;12.70;99.50;;;;;;5085956;28;21039;-61
2023/05/05 04:20:41;;;;;;;15.70;12.27;;;12.70;99.50;;;;;;5091172;28;20465;-61
2023/05/05 04:23:08;;;;;;;10.30;8.30;;;12.70;99.70;;;;;;5095356;28;20465;-62
2023/05/05 04:25:34;;;;;;;11.20;10.07;;;12.70;99.10;;;;;;5076442;28;20482;-62
2023/05/05 04:28:01;;;;;;;9.30;8.40;;;12.70;99.30;;;;;;5086772;27;20484;-62
2023/05/05 04:30:28;;;;;;;12.20;10.30;;;12.80;99.10;;;;;;5099091;27;20496;-62
2023/05/05 04:32:55;;;;;;;14.17;9.50;;;12.70;98.70;;;;;;5098863;27;20514;-62
2023/05/05 04:35:23;;;;;;;10.40;9.40;;;12.60;99.00;;;;;;5094667;28;20473;-63
2023/05/05 04:37:49;;;;;;;10.37;9.03;;;12.40;99.90;;;;;;5098698;27;20469;-62
2023/05/05 04:40:16;;;;;;;12.33;10.03;;;12.40;99.90;;;;;;5083635;27;20485;-62
2023/05/05 04:42:43;;;;;;;9.70;8.70;;;12.40;99.90;;;;;;5084292;28;20587;-62
2023/05/05 04:45:11;;;;;;;11.70;9.80;;;12.30;99.90;;;;;;5100211;28;20481;-62
2023/05/05 04:47:38;;;;;;;18.00;12.20;;;12.30;99.90;;;;;;5089183;28;20522;-62
2023/05/05 04:50:06;;;;;;;9.70;8.00;;;12.40;99.90;;;;;;5077233;28;21159;-62
2023/05/05 04:52:34;;;;;;;10.03;8.83;;;12.30;99.90;;;;;;5089300;28;20566;-62
2023/05/05 04:55:01;;;;;;;10.10;8.20;;;12.30;99.90;;;;;;5098444;27;20481;-62
2023/05/05 04:57:29;;;;;;;10.93;8.57;;;12.40;99.90;;;;;;5078949;28;20536;-62
2023/05/05 04:59:56;;;;;;;12.73;7.90;;;12.50;99.90;;;;;;5081881;28;20529;-62
2023/05/05 05:02:22;;;;;;;13.83;10.33;;;12.50;99.90;;;;;;5096954;27;20485;-62
2023/05/05 05:04:49;;;;;;;10.40;9.13;;;12.70;99.90;;;;;;5068065;28;20513;-62
2023/05/05 05:07:16;;;;;;;14.03;10.00;;;12.70;99.90;;;;;;5083686;27;20480;-62
2023/05/05 05:09:44;;;;;;;10.40;8.80;;;12.70;99.90;;;;;;5082127;28;20479;-62
2023/05/05 05:12:11;;;;;;;9.23;8.23;;;12.80;99.90;;;;;;5073159;27;20865;-62
2023/05/05 05:14:38;;;;;;;15.40;10.47;;;12.90;99.90;;;;;;5095201;27;20978;-61
2023/05/05 05:17:05;;;;;;;10.23;8.37;;;13.10;99.90;;;;;;5075843;28;20478;-62
2023/05/05 05:19:32;;;;;;;9.27;8.30;;;13.20;99.90;;;;;;5083609;28;20478;-61
2023/05/05 05:21:58;;;;;;;11.83;8.67;;;13.30;99.90;;;;;;5080378;27;20482;-62
2023/05/05 05:24:25;;;;;;;12.87;8.40;;;13.40;99.90;;;;;;5078401;28;20483;-62
2023/05/05 05:26:53;;;;;;;9.70;8.63;;;13.50;99.90;;;;;;5092503;28;20535;-62
2023/05/05 05:29:20;;;;;;;9.73;8.73;;;13.50;99.90;;;;;;5074441;27;20488;-62
2023/05/05 05:31:46;;;;;;;8.37;7.50;;;13.70;99.90;;;;;;5100465;27;20493;-61
2023/05/05 05:34:13;;;;;;;12.63;8.00;;;13.90;99.90;;;;;;5076872;27;20478;-61
2023/05/05 05:36:40;;;;;;;10.10;7.93;;;13.90;99.90;;;;;;5085121;28;20474;-62
2023/05/05 05:39:07;;;;;;;10.70;8.83;;;14.10;99.90;;;;;;5096126;28;20481;-61
2023/05/05 05:41:33;;;;;;;9.60;8.63;;;14.20;99.90;;;;;;5080715;28;20481;-61
2023/05/05 05:44:01;;;;;;;10.83;8.83;;;14.40;99.90;;;;;;5083368;28;20469;-61
2023/05/05 05:46:28;;;;;;;13.70;10.03;;;14.60;99.90;;;;;;5087173;28;20490;-61
2023/05/05 05:48:55;;;;;;;9.80;8.80;;;14.80;99.90;;;;;;5079825;28;20487;-61
2023/05/05 05:51:21;;;;;;;12.03;9.73;;;14.80;99.90;;;;;;5078141;28;20565;-61
2023/05/05 05:53:48;;;;;;;14.50;9.23;;;14.90;99.90;;;;;;5077079;28;20478;-61
2023/05/05 05:56:15;;;;;;;14.63;9.40;;;15.20;99.90;;;;;;5092166;28;20470;-61
2023/05/05 05:58:42;;;;;;;11.23;8.33;;;15.20;99.90;;;;;;5083476;28;20485;-61
2023/05/05 06:01:10;;;;;;;12.67;9.30;;;15.50;99.90;;;;;;5080539;28;20491;-61
2023/05/05 06:03:37;;;;;;;8.83;7.10;;;15.60;99.90;;;;;;5075713;28;20574;-61
2023/05/05 06:06:03;;;;;;;15.17;8.90;;;15.70;99.90;;;;;;5080449;28;20482;-61
2023/05/05 06:08:30;;;;;;;9.63;7.60;;;15.70;99.90;;;;;;5079199;28;20479;-61
2023/05/05 06:10:59;;;;;;;9.93;8.20;;;15.90;99.90;;;;;;5088762;28;20496;-61
2023/05/05 06:13:26;;;;;;;10.10;7.60;;;15.90;99.90;;;;;;5085361;28;20471;-62
2023/05/05 06:15:52;;;;;;;20.47;8.80;;;16.20;99.90;;;;;;5080458;28;20486;-62
2023/05/05 06:18:20;;;;;;;8.90;8.10;;;16.30;99.90;;;;;;5076811;28;20906;-62
2023/05/05 06:20:49;;;;;;;8.10;7.30;;;16.40;99.90;;;;;;5092309;28;20486;-62
2023/05/05 06:23:16;;;;;;;13.10;8.20;;;16.60;99.90;;;;;;5090371;28;20482;-62
2023/05/05 06:25:42;;;;;;;9.93;8.10;;;16.70;99.90;;;;;;5091116;28;20555;-62
2023/05/05 06:28:09;;;;;;;8.03;7.20;;;16.90;99.90;;;;;;5059779;28;20478;-62
2023/05/05 06:30:36;;;;;;;7.90;7.10;;;17.00;99.90;;;;;;5090402;28;20481;-62
2023/05/05 06:33:02;;;;;;;17.10;8.30;;;17.20;99.90;;;;;;5095188;28;20482;-62
2023/05/05 06:35:30;;;;;;;10.63;7.43;;;17.30;99.90;;;;;;5090972;28;20485;-62
2023/05/05 06:37:57;;;;;;;10.43;8.17;;;17.30;99.90;;;;;;5090397;28;20478;-62
2023/05/05 06:40:24;;;;;;;10.17;6.03;;;17.50;99.90;;;;;;5075542;28;20835;-63
2023/05/05 06:42:51;;;;;;;12.97;6.50;;;17.40;99.90;;;;;;5100693;28;20485;-62
2023/05/05 06:45:17;;;;;;;10.50;7.93;;;17.60;99.90;;;;;;5083970;28;20478;-62
2023/05/05 06:47:44;;;;;;;9.30;6.47;;;17.60;99.90;;;;;;5072809;27;20992;-62
2023/05/05 06:50:11;;;;;;;7.33;6.07;;;17.70;99.90;;;;;;5093331;27;20493;-63
2023/05/05 06:52:39;;;;;;;11.30;7.33;;;17.80;99.90;;;;;;5074112;27;20482;-63
2023/05/05 06:55:07;;;;;;;7.53;6.10;;;17.90;99.90;;;;;;5105021;27;20833;-63
2023/05/05 06:57:34;;;;;;;9.47;6.00;;;18.10;99.90;;;;;;5078936;27;20470;-64
2023/05/05 07:00:00;;;;;;;9.40;7.30;;;18.40;99.90;;;;;;5070051;28;20486;-63
2023/05/05 07:02:27;;;;;;;10.60;6.60;;;18.50;99.90;;;;;;5092539;28;21145;-63
2023/05/05 07:04:55;;;;;;;7.03;6.33;;;18.60;99.90;;;;;;5080454;28;21239;-64
2023/05/05 07:07:21;;;;;;;8.73;7.20;;;18.70;99.90;;;;;;5085627;28;20572;-64
2023/05/05 07:09:49;;;;;;;7.40;6.63;;;18.80;99.90;;;;;;5064623;28;20543;-62
2023/05/05 07:12:16;;;;;;;7.97;6.47;;;18.80;99.90;;;;;;5092154;28;20548;-62
2023/05/05 07:14:43;;;;;;;8.77;6.10;;;18.80;99.90;;;;;;5087345;28;20858;-62
2023/05/05 07:17:10;;;;;;;6.67;6.00;;;18.90;99.90;;;;;;5081500;28;20554;-63
2023/05/05 07:19:37;;;;;;;7.97;6.50;;;19.00;99.90;;;;;;5077168;28;21067;-62
2023/05/05 07:22:04;;;;;;;10.23;6.57;;;19.30;99.90;;;;;;5098783;27;20647;-63
2023/05/05 07:24:30;;;;;;;9.47;6.40;;;19.20;99.20;;;;;;5069126;28;20805;-63
2023/05/05 07:26:59;;;;;;;8.10;6.20;;;19.30;99.60;;;;;;5092917;27;20481;-63
2023/05/05 07:29:25;;;;;;;11.17;6.17;;;19.30;99.50;;;;;;5072773;28;20678;-63
2023/05/05 07:31:52;;;;;;;5.17;4.60;;;19.20;99.60;;;;;;5077268;28;20479;-62
2023/05/05 07:34:19;;;;;;;10.87;5.17;;;19.50;99.90;;;;;;5076933;28;20491;-62
2023/05/05 07:36:45;;;;;;;5.13;4.27;;;20.00;98.00;;;;;;5077626;27;20477;-62
2023/05/05 07:39:14;;;;;;;8.17;4.80;;;20.00;97.60;;;;;;5085488;27;20480;-64
2023/05/05 07:41:41;;;;;;;4.67;4.27;;;20.10;98.00;;;;;;5076323;28;20517;-63
2023/05/05 07:44:09;;;;;;;7.30;4.47;;;20.10;98.10;;;;;;5067602;27;20562;-63
2023/05/05 07:46:35;;;;;;;5.40;4.90;;;20.20;98.60;;;;;;5096096;27;20509;-63
2023/05/05 07:49:02;;;;;;;6.27;4.90;;;20.20;98.40;;;;;;5070838;28;20484;-63
2023/05/05 07:51:30;;;;;;;4.90;4.40;;;20.20;97.90;;;;;;5089760;27;20501;-63
2023/05/05 07:53:57;;;;;;;8.10;4.80;;;20.60;98.10;;;;;;5083666;27;20482;-63
2023/05/05 07:56:24;;;;;;;4.90;4.47;;;20.60;98.40;;;;;;5077584;28;20476;-64
2023/05/05 07:58:50;;;;;;;4.73;4.07;;;20.80;97.40;;;;;;5065763;28;20471;-63
2023/05/05 08:01:19;;;;;;;4.80;4.30;;;20.90;98.20;;;;;;5077114;28;20491;-63
2023/05/05 08:03:45;;;;;;;4.87;4.37;;;21.00;97.80;;;;;;5083513;28;20486;-63
2023/05/05 08:06:15;;;;;;;6.03;4.73;;;21.30;96.50;;;;;;5079856;28;20486;-64
2023/05/05 08:08:42;;;;;;;5.53;4.10;;;21.30;96.40;;;;;;5072565;28;21306;-63
2023/05/05 08:11:08;;;;;;;4.80;3.93;;;21.40;95.40;;;;;;5078188;28;20490;-63
2023/05/05 08:13:35;;;;;;;5.33;3.90;;;21.40;95.60;;;;;;5078629;28;20539;-63
2023/05/05 08:16:02;;;;;;;4.63;4.20;;;21.30;95.70;;;;;;5076678;28;20525;-63
2023/05/05 08:18:30;;;;;;;5.00;4.50;;;21.10;95.90;;;;;;5075015;28;20531;-63
2023/05/05 08:20:57;;;;;;;4.50;4.10;;;21.30;96.80;;;;;;5071463;28;20493;-65
2023/05/05 08:23:23;;;;;;;6.60;4.43;;;21.40;96.70;;;;;;5069763;28;20916;-64
2023/05/05 08:25:51;;;;;;;4.60;3.80;;;21.70;96.60;;;;;;5077515;28;20486;-64
2023/05/05 08:28:18;;;;;;;6.37;3.90;;;21.90;96.80;;;;;;5077300;28;20479;-64
2023/05/05 08:30:45;;;;;;;4.60;4.00;;;22.20;96.90;;;;;;5076422;28;20525;-64
2023/05/05 08:33:11;;;;;;;4.90;3.20;;;22.40;95.60;;;;;;5082666;27;21008;-64
2023/05/05 08:35:39;;;;;;;3.17;2.87;;;22.30;94.80;;;;;;5093058;27;20476;-64
2023/05/05 08:38:06;;;;;;;3.43;3.13;;;22.20;94.30;;;;;;5086295;27;20474;-63
2023/05/05 08:40:35;;;;;;;4.17;2.80;;;22.20;95.00;;;;;;5076697;28;20512;-63
2023/05/05 08:43:02;;;;;;;17.77;3.47;;;22.40;96.50;;;;;;5073671;28;20852;-64
2023/05/05 08:45:29;;;;;;;3.60;2.80;;;22.50;94.00;;;;;;5073012;28;20466;-64
2023/05/05 08:47:57;;;;;;;3.97;2.20;;;22.60;93.80;;;;;;5097002;27;20823;-63
2023/05/05 08:50:26;;;;;;;2.10;1.60;;;22.40;93.20;;;;;;5074700;28;20573;-64
2023/05/05 08:53:04;;;;;;;7.80;1.90;;;22.20;91.90;;;;;;5088578;27;20579;-64
2023/05/05 08:55:35;;;;;;;2.63;2.30;;;22.40;92.40;;;;;;5074732;28;21067;-64
2023/05/05 08:58:03;;;;;;;8.30;2.00;;;22.40;91.30;;;;;;5076061;28;20532;-64
2023/05/05 09:00:30;;;;;;;6.40;1.50;;;22.50;91.10;;;;;;5073243;27;20469;-64
2023/05/05 09:02:58;;;;;;;4.07;1.10;;;22.80;90.10;;;;;;5075497;28;20517;-64
2023/05/05 09:05:25;;;;;;;6.93;2.00;;;22.80;90.90;;;;;;5076300;28;20478;-64
2023/05/05 09:07:52;;;;;;;5.50;2.17;;;23.00;91.40;;;;;;5074528;28;20536;-64
2023/05/05 09:10:20;;;;;;;3.57;2.10;;;23.20;91.30;;;;;;5074640;28;20482;-64
2023/05/05 09:12:48;;;;;;;6.90;1.17;;;23.30;92.10;;;;;;5064418;27;20614;-65
2023/05/05 09:15:15;;;;;;;2.20;1.40;;;23.10;89.60;;;;;;5103421;27;20482;-65
2023/05/05 09:17:42;;;;;;;5.03;1.37;;;23.10;90.20;;;;;;5071510;28;20527;-64
2023/05/05 09:20:11;;;;;;;2.83;1.50;;;23.10;90.10;;;;;;5077861;27;20569;-65
2023/05/05 09:22:38;;;;;;;4.73;1.83;;;22.90;90.70;;;;;;5087737;27;20482;-64
2023/05/05 09:25:06;;;;;;;3.13;1.97;;;23.10;91.90;;;;;;5075762;28;21867;-64
2023/05/05 09:27:37;;;;;;;5.57;1.83;;;23.20;90.50;;;;;;5074615;28;20483;-65
2023/05/05 09:30:05;;;;;;;3.33;1.40;;;23.30;91.50;;;;;;5075409;28;20487;-64
2023/05/05 09:32:44;;;;;;;4.87;1.83;;;23.40;90.10;;;;;;5076370;28;20482;-64
2023/05/05 09:35:10;;;;;;;7.00;2.10;;;23.60;90.30;;;;;;5076557;28;20471;-63
2023/05/05 09:37:37;;;;;;;10.43;2.10;;;23.70;88.60;;;;;;5066533;28;20915;-63
2023/05/05 09:40:05;;;;;;;11.37;2.27;;;23.90;89.60;;;;;;5075896;28;20495;-63
2023/05/05 09:42:32;;;;;;;7.70;2.23;;;23.90;89.60;;;;;;5072376;28;21004;-63
2023/05/05 09:45:01;;;;;;;5.00;1.90;;;23.90;90.00;;;;;;5075902;28;20487;-64
2023/05/05 09:47:34;;;;;;;2.83;1.37;;;24.00;88.70;;;;;;5071235;28;20480;-64
2023/05/05 09:50:01;;;;;;;5.23;1.97;;;24.00;88.80;;;;;;5072016;28;20670;-63
2023/05/05 09:52:29;;;;;;;3.97;1.87;;;24.10;90.00;;;;;;5076834;27;20680;-63
2023/05/05 09:54:56;;;;;;;3.77;1.90;;;24.00;90.30;;;;;;5087644;27;20917;-64
2023/05/05 09:57:28;;;;;;;3.50;1.83;;;23.90;91.20;;;;;;5074459;28;20475;-64
2023/05/05 09:59:56;;;;;;;3.83;2.20;;;23.60;90.10;;;;;;5061041;28;20558;-64
2023/05/05 10:02:31;;;;;;;4.80;1.73;;;23.50;91.10;;;;;;5074424;28;20558;-64
2023/05/05 10:05:09;;;;;;;3.70;1.97;;;23.70;91.40;;;;;;5062512;27;20576;-64
2023/05/05 10:07:37;;;;;;;5.10;1.97;;;23.80;91.00;;;;;;5083757;27;20479;-65
2023/05/05 10:10:05;;;;;;;6.23;2.30;;;23.90;90.40;;;;;;5074789;28;20476;-65
2023/05/05 10:12:34;;;;;;;3.40;1.80;;;23.90;90.10;;;;;;5067802;28;20483;-65
2023/05/05 10:15:02;;;;;;;3.60;2.17;;;24.00;90.40;;;;;;5062881;28;21044;-64
2023/05/05 10:17:32;;;;;;;3.50;1.67;;;24.10;90.20;;;;;;5073988;28;20538;-65
2023/05/05 10:20:02;;;;;;;2.60;1.60;;;24.10;89.80;;;;;;5077387;28;20653;-65
2023/05/05 10:22:33;;;;;;;3.07;2.23;;;23.70;88.10;;;;;;5074009;28;20463;-63
2023/05/05 10:25:03;;;;;;;2.17;1.73;;;23.60;90.10;;;;;;5070731;28;20543;-64
2023/05/05 10:27:38;;;;;;;4.20;1.97;;;23.80;91.00;;;;;;5072762;28;20581;-65
2023/05/05 10:30:06;;;;;;;3.90;2.07;;;23.90;90.00;;;;;;5072265;28;20452;-64
2023/05/05 10:32:39;;;;;;;7.50;2.77;;;24.00;88.20;;;;;;5073572;28;20449;-64
2023/05/05 10:35:09;;;;;;;5.57;2.00;;;24.30;89.90;;;;;;5074084;28;20482;-65
2023/05/05 10:37:38;;;;;;;2.77;1.50;;;24.60;88.60;;;;;;5072535;28;21340;-65
2023/05/05 10:40:07;;;;;;;4.63;1.50;;;24.80;87.30;;;;;;5072905;28;20487;-65
2023/05/05 10:42:33;;;;;;;3.67;1.53;;;25.00;86.90;;;;;;5073940;28;20460;-64
2023/05/05 10:45:00;;;;;;;3.60;1.50;;;25.10;85.90;;;;;;5072970;28;20486;-65
2023/05/05 10:47:28;;;;;;;2.20;1.63;;;24.90;83.50;;;;;;5070975;28;20503;-65
2023/05/05 10:50:03;;;;;;;2.23;1.70;;;24.80;84.00;;;;;;5065300;27;21350;-66
2023/05/05 10:52:37;;;;;;;2.63;1.40;;;24.70;85.30;;;;;;5096253;28;20494;-65
2023/05/05 10:55:12;;;;;;;3.03;2.13;;;24.70;85.80;;;;;;5073434;28;20478;-65
2023/05/05 10:57:41;;;;;;;3.17;1.47;;;24.70;86.30;;;;;;5074974;28;20485;-63
2023/05/05 11:00:09;;;;;;;2.00;1.40;;;24.80;86.60;;;;;;5087678;27;20467;-64
2023/05/05 11:02:37;;;;;;;3.17;1.27;;;25.10;87.50;;;;;;5079454;27;20498;-64
2023/05/05 11:05:15;;;;;;;3.53;1.70;;;25.20;84.60;;;;;;5071598;28;21141;-64
2023/05/05 11:07:42;;;;;;;5.60;1.50;;;25.50;82.20;;;;;;5060414;28;20534;-64
2023/05/05 11:10:10;;;;;;;2.47;1.40;;;25.40;81.40;;;;;;5070100;28;20467;-64
2023/05/05 11:13:14;;;;;;;5.80;1.73;;;25.40;82.10;;;;;;5071519;28;20482;-64
2023/05/05 11:15:40;;;;;;;5.50;1.70;;;24.90;82.10;;;;;;5070435;28;20448;-64
2023/05/05 11:18:07;;;;;;;3.60;1.60;;;24.60;82.20;;;;;;5067747;28;21007;-64
2023/05/05 11:21:02;;;;;;;2.23;1.27;;;24.70;85.00;;;;;;5072359;28;20488;-64
2023/05/05 11:23:30;;;;;;;2.17;1.20;;;24.70;81.60;;;;;;5075607;28;20450;-64
2023/05/05 11:25:57;;;;;;;2.70;1.30;;;24.80;84.70;;;;;;5076124;28;20654;-64
2023/05/05 11:28:28;;;;;;;5.13;1.80;;;24.70;81.90;;;;;;5077172;28;20604;-65
2023/05/05 11:31:20;;;;;;;2.87;1.50;;;24.70;83.30;;;;;;5079156;28;20514;-64
2023/05/05 11:33:46;;;;;;;2.03;1.50;;;24.70;84.20;;;;;;5078465;28;20444;-63
2023/05/05 11:36:15;;;;;;;7.83;1.63;;;24.70;83.30;;;;;;5075897;28;20471;-64
2023/05/05 11:39:03;;;;;;;2.57;1.60;;;24.70;84.50;;;;;;5073678;28;20445;-64
2023/05/05 11:41:52;;;;;;;5.80;1.67;;;24.90;83.30;;;;;;5078321;28;20468;-64
2023/05/05 11:44:20;;;;;;;2.27;1.53;;;25.30;83.70;;;;;;5069560;28;20572;-63
2023/05/05 11:47:27;;;;;;;2.43;1.40;;;25.40;83.10;;;;;;5079217;28;20490;-63
2023/05/05 11:49:55;;;;;;;3.40;1.87;;;25.60;85.10;;;;;;5055647;28;20457;-63
2023/05/05 11:52:25;;;;;;;9.23;1.90;;;25.60;81.60;;;;;;5079082;28;20958;-64
2023/05/05 11:54:52;;;;;;;4.10;1.97;;;25.50;81.70;;;;;;5078715;28;20455;-64
2023/05/05 11:57:21;;;;;;;3.00;1.50;;;25.20;81.20;;;;;;5078475;28;20550;-63
2023/05/05 11:59:55;;;;;;;2.30;1.10;;;24.40;80.80;;;;;;5077653;28;20597;-65
2023/05/05 12:02:22;;;;;;;2.10;1.40;;;24.30;81.90;;;;;;5080406;28;20477;-65
2023/05/05 12:04:49;;;;;;;5.07;1.60;;;24.30;84.80;;;;;;5081325;28;20457;-65
2023/05/05 12:07:17;;;;;;;3.23;1.60;;;24.30;85.90;;;;;;5079989;28;20531;-65
2023/05/05 12:09:46;;;;;;;2.83;1.70;;;24.30;85.50;;;;;;5071813;28;20472;-65
2023/05/05 12:12:13;;;;;;;4.10;1.90;;;24.30;84.50;;;;;;5083321;27;20497;-64
2023/05/05 12:14:50;;;;;;;1.90;1.20;;;24.50;84.60;;;;;;5084533;27;20488;-64
2023/05/05 12:17:19;;;;;;;3.30;1.33;;;24.70;83.40;;;;;;5072163;28;20475;-64
2023/05/05 12:19:47;;;;;;;2.53;1.43;;;24.90;77.30;;;;;;5074761;27;20481;-64
2023/05/05 12:22:20;;;;;;;5.10;1.30;;;25.10;78.40;;;;;;5089321;27;20475;-65
2023/05/05 12:24:54;;;;;;;2.90;1.20;;;24.90;78.20;;;;;;5074215;28;20514;-65
2023/05/05 12:27:21;;;;;;;5.63;1.43;;;24.80;78.60;;;;;;5074258;28;20475;-65
2023/05/05 12:29:48;;;;;;;2.33;1.47;;;24.60;80.10;;;;;;5074061;28;20483;-66
2023/05/05 12:32:23;;;;;;;2.93;1.60;;;24.90;82.50;;;;;;5096893;27;20972;-66
2023/05/05 12:34:53;;;;;;;4.13;1.23;;;24.80;82.10;;;;;;5073453;28;20487;-65
2023/05/05 12:37:20;;;;;;;2.20;1.23;;;24.80;82.60;;;;;;5075085;28;20494;-65
2023/05/05 12:39:47;;;;;;;3.70;1.20;;;24.70;78.50;;;;;;5072743;28;20657;-64
2023/05/05 12:42:16;;;;;;;2.33;1.20;;;24.80;81.20;;;;;;5074497;28;20545;-64
2023/05/05 12:44:43;;;;;;;1.93;1.13;;;24.80;80.10;;;;;;5074546;28;20491;-65
2023/05/05 12:47:11;;;;;;;2.07;1.30;;;24.80;79.80;;;;;;5069344;28;20483;-65
2023/05/05 12:49:48;;;;;;;3.43;1.47;;;24.80;81.10;;;;;;5070203;28;20984;-65
2023/05/05 12:52:16;;;;;;;3.20;1.97;;;24.80;79.90;;;;;;5071098;28;20450;-65